Time;durP1;ratioP1;P1;durP2;ratioP2;P2;SDS_P1;SDS_P2;PMS_P1;PMS_P2;Temp;Humidity;BMP_temperature;BMP_pressure;BME280_temperature;BME280_humidity;BME280_pressure;Samples;Min_cycle;Max_cycle;Signal;HPM_P1;HPM_P2
2021/03/13 00:00:41;;;;;;;6.00;3.30;;;;;;;;;;5055275;28;20540;-76
2021/03/13 00:03:06;;;;;;;7.30;3.22;;;;;;;;;;5055220;28;20414;-76
2021/03/13 00:05:34;;;;;;;5.38;2.80;;;;;;;;;;5055732;28;20059;-76
2021/03/13 00:07:59;;;;;;;5.28;3.20;;;;;;;;;;5055568;28;20047;-76
2021/03/13 00:10:25;;;;;;;4.75;2.78;;;;;;;;;;5054801;28;20127;-76
2021/03/13 00:12:53;;;;;;;4.20;2.65;;;;;;;;;;5066195;28;20551;-76
2021/03/13 00:15:19;;;;;;;3.83;2.70;;;;;;;;;;5022992;28;20032;-77
2021/03/13 00:17:46;;;;;;;4.90;2.53;;;;;;;;;;5055240;28;20491;-76
2021/03/13 00:20:13;;;;;;;4.95;2.70;;;;;;;;;;5054618;28;20036;-76
2021/03/13 00:22:38;;;;;;;6.63;2.75;;;;;;;;;;5064113;28;20424;-76
2021/03/13 00:25:05;;;;;;;5.03;2.63;;;;;;;;;;5057723;28;20046;-76
2021/03/13 00:27:31;;;;;;;4.57;2.47;;;;;;;;;;5060599;28;20186;-76
2021/03/13 00:29:56;;;;;;;4.95;2.40;;;;;;;;;;5071246;28;20123;-76
2021/03/13 00:32:21;;;;;;;4.68;2.63;;;;;;;;;;5071269;28;20040;-76
2021/03/13 00:34:47;;;;;;;3.80;2.00;;;;;;;;;;5073845;28;20036;-76
2021/03/13 00:37:12;;;;;;;4.22;2.10;;;;;;;;;;5074681;28;20050;-77
2021/03/13 00:39:38;;;;;;;5.10;1.98;;;;;;;;;;5074429;28;20460;-76
2021/03/13 00:42:04;;;;;;;3.53;2.05;;;;;;;;;;5053105;28;20036;-77
2021/03/13 00:44:29;;;;;;;4.32;2.25;;;;;;;;;;5055770;28;20445;-76
2021/03/13 00:46:54;;;;;;;3.95;2.00;;;;;;;;;;5054515;28;20107;-76
2021/03/13 00:49:20;;;;;;;5.65;2.10;;;;;;;;;;5061195;28;20461;-76
2021/03/13 00:51:45;;;;;;;3.13;1.65;;;;;;;;;;5075052;28;20032;-76
2021/03/13 00:54:11;;;;;;;3.38;1.95;;;;;;;;;;5070572;28;20474;-76
2021/03/13 00:56:36;;;;;;;4.15;2.08;;;;;;;;;;5055130;28;20052;-76
2021/03/13 00:59:02;;;;;;;3.15;1.85;;;;;;;;;;5054264;28;20040;-76
2021/03/13 01:01:27;;;;;;;2.97;1.60;;;;;;;;;;5037892;28;20461;-76
2021/03/13 01:03:52;;;;;;;4.53;2.03;;;;;;;;;;5054322;28;20036;-76
2021/03/13 01:06:19;;;;;;;3.13;1.27;;;;;;;;;;5070638;28;20063;-76
2021/03/13 01:08:44;;;;;;;3.58;1.70;;;;;;;;;;5034763;28;20502;-76
2021/03/13 01:11:10;;;;;;;2.72;1.40;;;;;;;;;;5054162;28;20044;-76
2021/03/13 01:13:35;;;;;;;3.10;1.55;;;;;;;;;;5065288;28;20414;-76
2021/03/13 01:16:00;;;;;;;3.10;1.67;;;;;;;;;;5054190;28;20841;-76
2021/03/13 01:18:26;;;;;;;4.07;1.67;;;;;;;;;;5054073;28;20410;-76
2021/03/13 01:20:52;;;;;;;4.13;1.63;;;;;;;;;;5067870;28;20117;-76
2021/03/13 01:23:17;;;;;;;3.47;1.35;;;;;;;;;;5070223;28;20441;-76
2021/03/13 01:25:42;;;;;;;3.25;1.30;;;;;;;;;;5068979;28;20071;-76
2021/03/13 01:28:08;;;;;;;2.75;1.23;;;;;;;;;;5039619;28;20038;-76
2021/03/13 01:30:33;;;;;;;3.70;1.30;;;;;;;;;;5053757;28;20067;-76
2021/03/13 01:32:59;;;;;;;3.53;1.23;;;;;;;;;;5053937;28;20372;-76
2021/03/13 01:35:25;;;;;;;3.22;1.38;;;;;;;;;;5053815;28;20040;-76
2021/03/13 01:37:50;;;;;;;2.83;1.02;;;;;;;;;;5054446;28;20040;-76
2021/03/13 01:40:16;;;;;;;2.88;1.20;;;;;;;;;;5064239;28;20040;-76
2021/03/13 01:42:45;;;;;;;2.78;1.23;;;;;;;;;;5071102;28;20029;-76
2021/03/13 01:45:11;;;;;;;2.80;0.98;;;;;;;;;;5056905;28;20032;-76
2021/03/13 01:47:36;;;;;;;2.10;1.13;;;;;;;;;;5073991;28;20047;-76
2021/03/13 01:50:03;;;;;;;3.10;1.08;;;;;;;;;;5040279;28;20036;-76
2021/03/13 01:52:29;;;;;;;4.65;1.80;;;;;;;;;;5081242;28;20525;-76
2021/03/13 01:54:54;;;;;;;3.08;1.45;;;;;;;;;;5077190;28;20032;-76
2021/03/13 01:57:20;;;;;;;3.42;1.15;;;;;;;;;;5080254;28;20094;-76
2021/03/13 01:59:46;;;;;;;3.20;1.13;;;;;;;;;;5067331;28;20461;-76
2021/03/13 02:02:12;;;;;;;2.85;1.10;;;;;;;;;;5054969;28;20045;-76
2021/03/13 02:04:41;;;;;;;1.88;1.00;;;;;;;;;;5070444;28;20071;-76
2021/03/13 02:07:43;;;;;;;3.28;1.20;;;;;;;;;;5078968;28;20529;-76
2021/03/13 02:10:38;;;;;;;2.77;1.00;;;;;;;;;;5062296;28;20059;-76
2021/03/13 02:13:25;;;;;;;3.35;1.17;;;;;;;;;;5092070;28;20274;-76
2021/03/13 02:16:28;;;;;;;1.40;0.90;;;;;;;;;;5074271;28;20041;-76
2021/03/13 02:19:05;;;;;;;3.15;0.70;;;;;;;;;;5074379;28;20434;-76
2021/03/13 02:21:56;;;;;;;2.80;1.17;;;;;;;;;;5056751;28;20040;-76
2021/03/13 02:24:33;;;;;;;3.63;1.08;;;;;;;;;;5067621;28;20053;-76
2021/03/13 02:27:17;;;;;;;2.72;1.00;;;;;;;;;;5072617;28;20033;-76
2021/03/13 02:29:58;;;;;;;2.85;1.05;;;;;;;;;;5074339;28;20499;-76
2021/03/13 02:32:54;;;;;;;1.70;0.70;;;;;;;;;;5042270;28;20064;-76
2021/03/13 02:35:43;;;;;;;2.35;0.70;;;;;;;;;;5073487;28;20068;-76
2021/03/13 02:38:14;;;;;;;2.00;0.80;;;;;;;;;;5067702;28;20067;-76
2021/03/13 02:40:39;;;;;;;2.83;1.05;;;;;;;;;;5056756;28;20094;-76
2021/03/13 02:43:07;;;;;;;2.22;0.90;;;;;;;;;;5064656;28;20036;-76
2021/03/13 02:45:36;;;;;;;2.33;0.70;;;;;;;;;;5057428;28;20043;-76
2021/03/13 02:48:04;;;;;;;2.38;0.73;;;;;;;;;;5057336;28;20087;-76
2021/03/13 02:50:29;;;;;;;2.47;0.82;;;;;;;;;;5056686;28;20036;-76
2021/03/13 02:52:55;;;;;;;2.50;1.33;;;;;;;;;;5086916;28;20035;-76
2021/03/13 02:55:20;;;;;;;1.75;0.57;;;;;;;;;;5097063;28;20445;-76
2021/03/13 02:57:46;;;;;;;2.25;0.73;;;;;;;;;;5046871;28;20406;-76
2021/03/13 03:00:15;;;;;;;2.80;0.85;;;;;;;;;;5056339;28;20051;-76
2021/03/13 03:02:41;;;;;;;2.50;0.90;;;;;;;;;;5074462;28;20116;-76
2021/03/13 03:05:07;;;;;;;1.70;0.68;;;;;;;;;;5056402;28;20036;-76
2021/03/13 03:07:32;;;;;;;1.27;0.60;;;;;;;;;;5052554;28;20082;-76
2021/03/13 03:09:58;;;;;;;2.10;0.73;;;;;;;;;;5056356;28;20066;-76
2021/03/13 03:12:24;;;;;;;1.63;0.52;;;;;;;;;;5057478;28;20388;-76
2021/03/13 03:14:51;;;;;;;1.00;0.65;;;;;;;;;;5074442;28;20052;-76
2021/03/13 03:17:17;;;;;;;2.05;0.70;;;;;;;;;;5056500;28;20456;-76
2021/03/13 03:19:43;;;;;;;1.67;0.60;;;;;;;;;;5072638;28;20079;-76
2021/03/13 03:22:08;;;;;;;1.45;0.55;;;;;;;;;;5072570;28;20453;-76
2021/03/13 03:24:34;;;;;;;1.50;0.55;;;;;;;;;;5064104;28;20039;-76
2021/03/13 03:26:59;;;;;;;1.20;0.68;;;;;;;;;;5061379;28;20449;-76
2021/03/13 03:29:26;;;;;;;2.22;0.60;;;;;;;;;;5056222;28;20043;-76
2021/03/13 03:31:51;;;;;;;1.77;0.60;;;;;;;;;;5057802;28;20537;-76
2021/03/13 03:34:17;;;;;;;2.53;0.60;;;;;;;;;;5059085;28;20083;-76
2021/03/13 03:36:42;;;;;;;1.98;0.45;;;;;;;;;;5037264;28;20051;-76
2021/03/13 03:39:09;;;;;;;2.00;0.82;;;;;;;;;;5071016;28;20111;-76
2021/03/13 03:41:34;;;;;;;1.10;0.40;;;;;;;;;;5055870;28;20109;-76
2021/03/13 03:44:10;;;;;;;2.13;0.60;;;;;;;;;;5057287;28;20510;-76
2021/03/13 03:46:36;;;;;;;1.67;0.63;;;;;;;;;;5039016;28;20029;-76
2021/03/13 03:49:06;;;;;;;1.95;0.57;;;;;;;;;;5039647;28;20052;-76
2021/03/13 03:51:31;;;;;;;1.50;0.63;;;;;;;;;;5060502;28;20036;-76
2021/03/13 03:53:57;;;;;;;1.35;0.55;;;;;;;;;;5095858;28;20578;-76
2021/03/13 03:56:22;;;;;;;2.83;0.60;;;;;;;;;;5065697;28;20044;-76
2021/03/13 03:58:48;;;;;;;1.95;0.50;;;;;;;;;;5034069;28;20505;-76
2021/03/13 04:01:13;;;;;;;1.50;0.73;;;;;;;;;;5055136;28;20044;-76
2021/03/13 04:03:44;;;;;;;1.60;0.60;;;;;;;;;;5037518;28;20036;-76
2021/03/13 04:06:11;;;;;;;2.92;0.65;;;;;;;;;;5055990;28;20463;-76
2021/03/13 04:08:37;;;;;;;1.83;0.50;;;;;;;;;;5043080;28;20052;-76
2021/03/13 04:11:03;;;;;;;2.17;0.60;;;;;;;;;;5055441;28;20040;-76
2021/03/13 04:13:28;;;;;;;2.35;0.70;;;;;;;;;;5058169;28;20039;-76
2021/03/13 04:15:54;;;;;;;1.80;0.47;;;;;;;;;;5074859;28;20078;-76
2021/03/13 04:18:19;;;;;;;1.00;0.40;;;;;;;;;;5057078;28;20448;-76
2021/03/13 04:20:49;;;;;;;2.22;0.63;;;;;;;;;;5074909;28;20036;-76
2021/03/13 04:23:15;;;;;;;2.72;0.65;;;;;;;;;;5092467;28;20033;-76
2021/03/13 04:25:41;;;;;;;2.13;0.50;;;;;;;;;;5075291;28;20039;-76
2021/03/13 04:28:06;;;;;;;1.73;0.60;;;;;;;;;;5054853;28;20410;-76
2021/03/13 04:30:33;;;;;;;2.72;0.45;;;;;;;;;;5054444;28;20047;-76
2021/03/13 04:32:58;;;;;;;2.63;0.70;;;;;;;;;;5032740;28;20149;-76
2021/03/13 04:35:25;;;;;;;1.42;0.50;;;;;;;;;;5074945;28;20031;-76
2021/03/13 04:37:50;;;;;;;1.95;0.40;;;;;;;;;;5049497;28;20133;-76
2021/03/13 04:40:17;;;;;;;1.92;0.60;;;;;;;;;;5037885;28;20090;-76
2021/03/13 04:42:43;;;;;;;1.73;0.45;;;;;;;;;;5054810;28;20047;-76
2021/03/13 04:45:09;;;;;;;1.48;0.50;;;;;;;;;;5070894;28;20032;-76
2021/03/13 04:47:36;;;;;;;2.05;0.43;;;;;;;;;;5071499;28;20483;-75
2021/03/13 04:50:02;;;;;;;1.85;0.47;;;;;;;;;;5070083;28;20052;-76
2021/03/13 04:52:28;;;;;;;1.80;0.43;;;;;;;;;;5082985;28;20049;-76
2021/03/13 04:54:53;;;;;;;1.63;0.40;;;;;;;;;;5093811;28;20028;-76
2021/03/13 04:57:19;;;;;;;2.22;0.60;;;;;;;;;;5077572;28;20040;-76
2021/03/13 04:59:44;;;;;;;1.05;0.30;;;;;;;;;;5093935;28;20409;-76
2021/03/13 05:02:09;;;;;;;1.98;0.70;;;;;;;;;;5085964;28;20517;-76
2021/03/13 05:04:35;;;;;;;1.98;0.60;;;;;;;;;;5054358;28;20048;-76
2021/03/13 05:07:00;;;;;;;1.55;0.40;;;;;;;;;;5070850;28;20415;-76
2021/03/13 05:09:26;;;;;;;1.88;0.40;;;;;;;;;;5052438;28;20457;-76
2021/03/13 05:11:51;;;;;;;2.03;0.70;;;;;;;;;;5040557;28;20481;-76
2021/03/13 05:14:17;;;;;;;1.67;0.30;;;;;;;;;;5063849;28;20449;-76
2021/03/13 05:16:42;;;;;;;2.03;0.40;;;;;;;;;;5070763;28;20487;-76
2021/03/13 05:19:08;;;;;;;2.10;0.75;;;;;;;;;;5054378;28;20083;-76
2021/03/13 05:21:33;;;;;;;1.50;0.50;;;;;;;;;;5071499;28;20120;-76
2021/03/13 05:23:58;;;;;;;1.77;0.40;;;;;;;;;;5060097;28;20067;-76
2021/03/13 05:26:24;;;;;;;2.50;0.43;;;;;;;;;;5054262;28;20040;-76
2021/03/13 05:28:50;;;;;;;2.22;0.45;;;;;;;;;;5037074;28;20399;-76
2021/03/13 05:31:16;;;;;;;1.58;0.43;;;;;;;;;;5037172;28;20032;-76
2021/03/13 05:33:41;;;;;;;3.47;0.98;;;;;;;;;;5054058;28;20064;-76
2021/03/13 05:36:07;;;;;;;1.20;0.38;;;;;;;;;;5060689;28;20045;-76
2021/03/13 05:38:33;;;;;;;2.28;0.82;;;;;;;;;;5051837;28;20037;-76
2021/03/13 05:40:58;;;;;;;1.88;0.45;;;;;;;;;;5055676;28;20079;-77
2021/03/13 05:43:24;;;;;;;1.52;0.57;;;;;;;;;;5036856;28;20036;-76
2021/03/13 05:45:49;;;;;;;1.10;0.40;;;;;;;;;;5053529;28;20120;-76
2021/03/13 05:48:15;;;;;;;2.55;0.60;;;;;;;;;;5053538;28;20395;-76
2021/03/13 05:50:40;;;;;;;1.92;0.43;;;;;;;;;;5053033;28;20068;-76
2021/03/13 05:53:05;;;;;;;2.15;0.40;;;;;;;;;;5055422;28;20457;-76
2021/03/13 05:55:31;;;;;;;1.38;0.30;;;;;;;;;;5053895;28;20402;-76
2021/03/13 05:57:56;;;;;;;1.30;0.30;;;;;;;;;;5070371;28;20111;-76
2021/03/13 06:00:22;;;;;;;1.35;0.20;;;;;;;;;;5036522;28;20029;-76
2021/03/13 06:02:50;;;;;;;2.22;0.30;;;;;;;;;;5071621;28;20032;-76
2021/03/13 06:05:16;;;;;;;1.83;0.50;;;;;;;;;;5070169;28;20040;-76
2021/03/13 06:07:41;;;;;;;2.03;0.30;;;;;;;;;;5039550;28;20414;-76
2021/03/13 06:10:07;;;;;;;1.42;0.40;;;;;;;;;;5053520;28;20068;-76
2021/03/13 06:12:33;;;;;;;1.40;0.32;;;;;;;;;;5053142;28;20029;-76
2021/03/13 06:14:58;;;;;;;1.92;0.50;;;;;;;;;;5053163;28;20033;-76
2021/03/13 06:17:25;;;;;;;1.70;0.40;;;;;;;;;;5070084;28;20434;-76
2021/03/13 06:19:57;;;;;;;2.88;0.47;;;;;;;;;;5070174;28;20441;-76
2021/03/13 06:22:32;;;;;;;;;;;;;;;;;;5054617;28;20043;-76
2021/03/13 06:25:13;;;;;;;1.10;0.22;;;;;;;;;;5070272;28;19935;-76
2021/03/13 06:27:39;;;;;;;1.02;0.30;;;;;;;;;;5084754;28;20386;-76
2021/03/13 06:30:05;;;;;;;2.42;0.40;;;;;;;;;;5072967;28;20440;-76
2021/03/13 06:32:33;;;;;;;1.48;0.40;;;;;;;;;;5073286;28;20032;-76
2021/03/13 06:35:17;;;;;;;1.17;0.30;;;;;;;;;;5073628;28;20036;-76
2021/03/13 06:37:43;;;;;;;1.75;0.40;;;;;;;;;;5068155;28;20029;-76
2021/03/13 06:40:09;;;;;;;1.70;0.30;;;;;;;;;;5036476;28;20101;-75
2021/03/13 06:42:34;;;;;;;1.65;0.57;;;;;;;;;;5068437;28;20515;-75
2021/03/13 06:45:04;;;;;;;1.55;0.30;;;;;;;;;;5055832;28;20048;-76
2021/03/13 06:47:40;;;;;;;1.92;0.30;;;;;;;;;;5028910;28;20038;-76
2021/03/13 06:50:15;;;;;;;2.08;0.40;;;;;;;;;;5048155;28;20064;-76
2021/03/13 06:52:42;;;;;;;0.88;0.20;;;;;;;;;;5060062;28;20498;-76
2021/03/13 06:55:14;;;;;;;1.05;0.30;;;;;;;;;;5054528;28;20033;-76
2021/03/13 06:57:40;;;;;;;1.80;0.20;;;;;;;;;;5036455;28;20032;-77
2021/03/13 07:00:07;;;;;;;2.97;0.50;;;;;;;;;;5078404;28;20379;-78
2021/03/13 07:02:32;;;;;;;0.90;0.30;;;;;;;;;;5050283;28;20045;-78
2021/03/13 07:05:08;;;;;;;2.85;0.20;;;;;;;;;;5073078;28;20039;-77
2021/03/13 07:07:34;;;;;;;1.52;0.50;;;;;;;;;;5049483;28;20032;-77
2021/03/13 07:10:00;;;;;;;2.50;0.50;;;;;;;;;;5079477;28;20085;-77
2021/03/13 07:12:38;;;;;;;3.28;0.40;;;;;;;;;;5068673;28;20102;-77
2021/03/13 07:15:26;;;;;;;1.48;0.22;;;;;;;;;;5089045;28;20107;-76
2021/03/13 07:17:52;;;;;;;3.45;0.20;;;;;;;;;;5093190;28;20032;-76
2021/03/13 07:20:28;;;;;;;1.88;0.60;;;;;;;;;;5092736;28;20043;-76
2021/03/13 07:22:57;;;;;;;1.85;0.20;;;;;;;;;;5064553;28;20101;-76
2021/03/13 07:25:24;;;;;;;2.15;0.60;;;;;;;;;;5075812;28;20039;-76
2021/03/13 07:27:55;;;;;;;2.50;0.22;;;;;;;;;;5076365;28;20534;-76
2021/03/13 07:30:21;;;;;;;2.38;0.30;;;;;;;;;;5076012;28;20509;-76
2021/03/13 07:32:49;;;;;;;1.38;0.30;;;;;;;;;;5076443;28;20032;-76
2021/03/13 07:35:15;;;;;;;1.08;0.20;;;;;;;;;;5059752;28;20036;-76
2021/03/13 07:37:41;;;;;;;0.82;0.30;;;;;;;;;;5059396;28;20501;-76
2021/03/13 07:40:15;;;;;;;1.13;0.30;;;;;;;;;;5037760;28;20074;-76
2021/03/13 07:42:40;;;;;;;3.90;0.40;;;;;;;;;;5089034;28;20039;-76
2021/03/13 07:45:07;;;;;;;1.73;0.30;;;;;;;;;;5072612;28;20032;-76
2021/03/13 07:47:32;;;;;;;1.17;0.22;;;;;;;;;;5072753;28;20545;-76
2021/03/13 07:49:58;;;;;;;2.38;0.55;;;;;;;;;;5059877;28;20060;-76
2021/03/13 07:52:23;;;;;;;1.05;0.20;;;;;;;;;;5055659;28;20051;-76
2021/03/13 07:54:50;;;;;;;2.33;0.43;;;;;;;;;;5059068;28;20039;-76
2021/03/13 07:57:15;;;;;;;3.08;0.40;;;;;;;;;;5059139;28;20108;-76
2021/03/13 07:59:47;;;;;;;1.50;0.30;;;;;;;;;;5075317;28;20118;-76
2021/03/13 08:02:42;;;;;;;0.57;0.20;;;;;;;;;;5075636;28;20048;-76
2021/03/13 08:05:17;;;;;;;2.97;0.55;;;;;;;;;;5088292;28;20049;-76
2021/03/13 08:07:58;;;;;;;1.40;0.22;;;;;;;;;;5039673;28;20120;-76
2021/03/13 08:10:46;;;;;;;5.78;0.60;;;;;;;;;;5090423;28;20621;-76
2021/03/13 08:13:33;;;;;;;5.05;0.35;;;;;;;;;;5091966;28;20054;-76
2021/03/13 08:16:05;;;;;;;6.10;0.60;;;;;;;;;;5081456;28;20050;-75
2021/03/13 08:18:43;;;;;;;4.80;0.63;;;;;;;;;;5091952;28;20064;-76
2021/03/13 08:21:18;;;;;;;4.60;0.60;;;;;;;;;;5065798;28;20040;-76
2021/03/13 08:23:50;;;;;;;2.33;0.30;;;;;;;;;;5071213;28;20447;-76
2021/03/13 08:26:22;;;;;;;5.50;0.75;;;;;;;;;;5074024;28;20074;-75
2021/03/13 08:28:48;;;;;;;4.57;0.60;;;;;;;;;;5058939;28;20098;-76
2021/03/13 08:31:23;;;;;;;2.95;0.70;;;;;;;;;;5091586;28;20449;-76
2021/03/13 08:33:56;;;;;;;2.60;0.70;;;;;;;;;;5093247;28;20032;-75
2021/03/13 08:36:23;;;;;;;3.28;0.60;;;;;;;;;;5075196;28;20043;-75
2021/03/13 08:38:58;;;;;;;3.05;0.52;;;;;;;;;;5058151;28;20111;-75
2021/03/13 08:44:29;;;;;;;5.85;0.80;;;;;;;;;;5089650;28;20032;-75
2021/03/13 08:47:04;;;;;;;5.80;0.73;;;;;;;;;;5064436;28;20041;-76
2021/03/13 08:49:29;;;;;;;9.10;1.45;;;;;;;;;;5055483;28;20031;-75
2021/03/13 08:52:07;;;;;;;13.32;2.03;;;;;;;;;;5070601;28;20414;-75
2021/03/13 08:54:39;;;;;;;8.23;1.02;;;;;;;;;;5072255;28;20040;-75
2021/03/13 08:57:27;;;;;;;9.05;1.33;;;;;;;;;;5072308;28;20052;-75
2021/03/13 08:59:56;;;;;;;11.68;1.50;;;;;;;;;;5054235;28;20572;-75
2021/03/13 09:02:29;;;;;;;12.55;1.63;;;;;;;;;;5070708;28;20042;-75
2021/03/13 09:05:00;;;;;;;11.52;1.85;;;;;;;;;;5054583;28;20024;-75
2021/03/13 09:07:25;;;;;;;8.23;1.48;;;;;;;;;;5070572;28;21124;-75
2021/03/13 09:09:51;;;;;;;12.43;1.60;;;;;;;;;;5071283;28;20032;-75
2021/03/13 09:12:18;;;;;;;12.15;1.60;;;;;;;;;;5052118;28;20036;-75
2021/03/13 09:14:53;;;;;;;10.00;1.40;;;;;;;;;;5066000;28;20102;-75
2021/03/13 09:17:22;;;;;;;13.48;1.77;;;;;;;;;;5050323;28;20037;-75
2021/03/13 09:19:48;;;;;;;10.43;1.75;;;;;;;;;;5054134;28;20028;-76
2021/03/13 09:22:21;;;;;;;6.85;0.90;;;;;;;;;;5036040;28;20123;-75
2021/03/13 09:24:59;;;;;;;7.88;1.45;;;;;;;;;;5065382;28;20067;-75
2021/03/13 09:27:30;;;;;;;15.05;2.00;;;;;;;;;;5070659;28;20406;-81
2021/03/13 09:29:58;;;;;;;6.80;1.08;;;;;;;;;;5055869;28;20044;-82
2021/03/13 09:32:24;;;;;;;3.67;1.15;;;;;;;;;;5040061;28;20043;-78
2021/03/13 09:34:51;;;;;;;9.63;1.73;;;;;;;;;;5073614;28;20129;-80
2021/03/13 09:37:29;;;;;;;12.77;1.88;;;;;;;;;;5053169;28;20037;-80
2021/03/13 09:40:06;;;;;;;7.28;1.85;;;;;;;;;;5037588;28;20032;-81
2021/03/13 09:42:45;;;;;;;13.13;1.70;;;;;;;;;;5068246;28;20709;-81
2021/03/13 09:45:14;;;;;;;8.13;1.17;;;;;;;;;;5034338;28;20533;-80
2021/03/13 09:47:44;;;;;;;8.52;2.00;;;;;;;;;;5051873;28;20028;-80
2021/03/13 09:50:14;;;;;;;14.18;1.90;;;;;;;;;;5047125;28;20029;-80
2021/03/13 09:52:46;;;;;;;13.85;2.58;;;;;;;;;;5031211;28;20029;-79
2021/03/13 09:55:13;;;;;;;11.05;2.33;;;;;;;;;;5059922;28;20037;-79
2021/03/13 09:57:40;;;;;;;22.42;4.78;;;;;;;;;;5047806;28;20526;-79
2021/03/13 10:00:09;;;;;;;15.23;2.38;;;;;;;;;;5030638;28;20108;-79
2021/03/13 10:02:35;;;;;;;17.77;3.85;;;;;;;;;;5030833;28;20078;-79
2021/03/13 10:05:01;;;;;;;18.25;3.45;;;;;;;;;;5047027;28;20033;-80
2021/03/13 10:07:27;;;;;;;13.93;2.67;;;;;;;;;;5047180;28;20110;-79
2021/03/13 10:09:54;;;;;;;15.40;3.20;;;;;;;;;;5030859;28;20041;-79
2021/03/13 10:12:28;;;;;;;13.70;4.00;;;;;;;;;;5033268;28;20415;-79
2021/03/13 10:14:53;;;;;;;13.30;3.42;;;;;;;;;;5033902;28;20055;-79
2021/03/13 10:17:19;;;;;;;17.50;3.88;;;;;;;;;;5050421;28;20562;-79
2021/03/13 10:19:45;;;;;;;16.25;2.92;;;;;;;;;;5049936;28;20033;-79
2021/03/13 10:22:10;;;;;;;15.20;4.28;;;;;;;;;;5025788;28;20037;-79
2021/03/13 10:24:46;;;;;;;11.88;2.53;;;;;;;;;;5047223;28;20051;-79
2021/03/13 10:27:21;;;;;;;11.93;2.50;;;;;;;;;;5034085;28;20137;-79
2021/03/13 10:29:54;;;;;;;9.45;2.88;;;;;;;;;;5050639;28;20112;-79
2021/03/13 10:32:24;;;;;;;9.60;2.30;;;;;;;;;;5034659;28;20043;-80
2021/03/13 10:35:12;;;;;;;14.68;2.75;;;;;;;;;;5034219;28;20115;-79
2021/03/13 10:37:40;;;;;;;14.43;2.40;;;;;;;;;;5050833;28;20090;-79
2021/03/13 10:40:10;;;;;;;8.63;2.55;;;;;;;;;;5049875;28;20115;-80
2021/03/13 10:42:36;;;;;;;10.73;2.75;;;;;;;;;;5050522;28;20044;-79
2021/03/13 10:45:15;;;;;;;7.93;2.53;;;;;;;;;;5049851;28;20419;-78
2021/03/13 10:47:41;;;;;;;6.95;1.75;;;;;;;;;;5033098;28;20174;-78
2021/03/13 10:50:08;;;;;;;10.38;1.80;;;;;;;;;;5032364;28;20045;-79
2021/03/13 10:52:33;;;;;;;9.93;2.03;;;;;;;;;;5028779;28;20166;-79
2021/03/13 10:54:59;;;;;;;12.40;2.65;;;;;;;;;;5036837;28;20112;-80
2021/03/13 10:57:24;;;;;;;13.63;2.97;;;;;;;;;;5036723;28;20394;-79
2021/03/13 10:59:49;;;;;;;10.40;2.67;;;;;;;;;;5020149;28;20105;-80
2021/03/13 11:02:15;;;;;;;13.75;3.15;;;;;;;;;;5035449;28;20044;-80
2021/03/13 11:04:41;;;;;;;12.23;2.67;;;;;;;;;;5020382;28;20047;-79
2021/03/13 11:07:07;;;;;;;9.07;2.10;;;;;;;;;;5032611;28;20038;-79
2021/03/13 11:09:33;;;;;;;11.80;2.72;;;;;;;;;;4999734;28;20091;-79
2021/03/13 11:11:58;;;;;;;13.63;3.33;;;;;;;;;;4999627;28;20033;-80
2021/03/13 11:14:24;;;;;;;15.65;4.22;;;;;;;;;;5003111;28;20163;-78
2021/03/13 11:16:51;;;;;;;9.80;4.25;;;;;;;;;;5003240;28;20040;-79
2021/03/13 11:19:18;;;;;;;10.20;3.65;;;;;;;;;;5003589;28;20123;-79
2021/03/13 11:21:43;;;;;;;10.05;3.58;;;;;;;;;;5035967;28;20039;-78
2021/03/13 11:24:10;;;;;;;9.55;3.03;;;;;;;;;;5035931;28;20041;-80
2021/03/13 11:26:35;;;;;;;11.27;3.15;;;;;;;;;;4999948;28;20124;-80
2021/03/13 11:29:00;;;;;;;11.32;2.75;;;;;;;;;;5000679;28;20110;-80
2021/03/13 11:31:26;;;;;;;11.35;2.90;;;;;;;;;;5002808;28;20025;-80
2021/03/13 11:33:51;;;;;;;12.15;3.08;;;;;;;;;;5003108;28;20036;-80
2021/03/13 11:36:17;;;;;;;11.73;3.00;;;;;;;;;;5035505;28;20146;-79
2021/03/13 11:38:43;;;;;;;16.92;3.25;;;;;;;;;;4999249;28;20091;-81
2021/03/13 11:41:11;;;;;;;12.82;3.20;;;;;;;;;;5008364;28;20105;-80
2021/03/13 11:43:39;;;;;;;12.57;2.80;;;;;;;;;;5033592;28;20040;-80
2021/03/13 11:46:05;;;;;;;8.63;2.03;;;;;;;;;;5034034;28;20049;-80
2021/03/13 11:48:31;;;;;;;10.48;2.65;;;;;;;;;;5025123;28;20060;-79
2021/03/13 11:50:56;;;;;;;12.32;3.17;;;;;;;;;;5046920;28;20039;-79
2021/03/13 11:53:21;;;;;;;15.88;3.75;;;;;;;;;;5035155;28;20663;-80
2021/03/13 11:55:47;;;;;;;9.38;2.72;;;;;;;;;;5015449;28;20041;-79
2021/03/13 11:58:13;;;;;;;9.88;2.45;;;;;;;;;;5015363;28;20049;-79
2021/03/13 12:00:39;;;;;;;10.55;2.58;;;;;;;;;;4999064;28;20065;-79
2021/03/13 12:03:05;;;;;;;19.27;3.28;;;;;;;;;;4999135;28;20043;-81
2021/03/13 12:05:30;;;;;;;9.30;2.35;;;;;;;;;;5000994;28;20029;-79
2021/03/13 12:07:56;;;;;;;8.27;2.60;;;;;;;;;;5018465;28;20037;-79
2021/03/13 12:10:21;;;;;;;14.13;3.00;;;;;;;;;;5034211;28;20403;-79
2021/03/13 12:12:47;;;;;;;12.00;2.65;;;;;;;;;;5017937;28;20044;-79
2021/03/13 12:15:12;;;;;;;7.90;2.13;;;;;;;;;;5014859;28;20500;-79
2021/03/13 12:17:38;;;;;;;11.45;3.05;;;;;;;;;;4998798;28;20033;-80
2021/03/13 12:20:05;;;;;;;8.00;2.20;;;;;;;;;;5014888;28;20124;-79
2021/03/13 12:22:30;;;;;;;12.30;3.63;;;;;;;;;;4998711;28;20514;-79
2021/03/13 12:24:56;;;;;;;7.70;3.22;;;;;;;;;;5047641;28;20026;-80
2021/03/13 12:27:21;;;;;;;9.85;2.67;;;;;;;;;;5014449;28;20127;-80
2021/03/13 12:29:47;;;;;;;10.88;2.78;;;;;;;;;;5030790;28;20048;-80
2021/03/13 12:32:12;;;;;;;5.38;2.35;;;;;;;;;;5031376;28;20037;-80
2021/03/13 12:34:39;;;;;;;8.35;2.53;;;;;;;;;;5014848;28;20504;-81
2021/03/13 12:37:05;;;;;;;8.95;2.50;;;;;;;;;;5031091;28;20088;-82
2021/03/13 12:39:31;;;;;;;14.38;2.80;;;;;;;;;;4998276;28;20400;-81
2021/03/13 12:41:57;;;;;;;5.85;2.30;;;;;;;;;;5030792;28;20045;-80
2021/03/13 12:44:22;;;;;;;9.82;2.53;;;;;;;;;;5001164;28;20147;-82
2021/03/13 12:46:48;;;;;;;9.63;2.90;;;;;;;;;;5018411;28;20525;-83
2021/03/13 12:49:13;;;;;;;8.23;2.80;;;;;;;;;;5002965;28;20115;-81
2021/03/13 12:51:39;;;;;;;10.38;2.88;;;;;;;;;;5020940;28;20036;-82
2021/03/13 12:54:05;;;;;;;8.77;2.28;;;;;;;;;;5020914;28;20028;-82
2021/03/13 12:56:30;;;;;;;6.05;1.90;;;;;;;;;;5021334;28;20111;-81
2021/03/13 12:58:55;;;;;;;7.47;2.00;;;;;;;;;;5020589;28;20470;-83
2021/03/13 13:01:21;;;;;;;7.32;2.08;;;;;;;;;;5019720;28;20041;-82
2021/03/13 13:03:59;;;;;;;9.20;1.98;;;;;;;;;;5001611;28;20039;-81
2021/03/13 13:06:25;;;;;;;8.00;1.63;;;;;;;;;;5002330;28;20076;-81
2021/03/13 13:08:52;;;;;;;4.60;1.23;;;;;;;;;;5001241;28;20035;-81
2021/03/13 13:11:17;;;;;;;5.43;0.82;;;;;;;;;;5001430;28;20060;-80
2021/03/13 13:13:43;;;;;;;6.35;1.65;;;;;;;;;;5016665;28;20115;-79
2021/03/13 13:16:08;;;;;;;6.43;1.40;;;;;;;;;;5017712;28;20113;-79
2021/03/13 13:18:34;;;;;;;6.30;1.80;;;;;;;;;;5017481;28;20052;-79
2021/03/13 13:20:59;;;;;;;10.77;1.65;;;;;;;;;;5033400;28;20518;-79
2021/03/13 13:23:25;;;;;;;7.22;1.40;;;;;;;;;;4999658;28;20025;-79
2021/03/13 13:25:50;;;;;;;18.73;2.63;;;;;;;;;;5017363;28;20116;-77
2021/03/13 13:28:16;;;;;;;7.00;1.42;;;;;;;;;;5032733;28;20059;-78
2021/03/13 13:30:41;;;;;;;7.43;1.52;;;;;;;;;;5017290;28;20410;-77
2021/03/13 13:33:07;;;;;;;5.15;1.77;;;;;;;;;;5033885;28;20120;-78
2021/03/13 13:35:33;;;;;;;7.13;2.25;;;;;;;;;;5013513;28;20783;-78
2021/03/13 13:37:58;;;;;;;6.80;3.17;;;;;;;;;;5008874;28;20039;-77
2021/03/13 13:40:24;;;;;;;8.93;1.88;;;;;;;;;;5014099;28;20103;-78
2021/03/13 13:42:50;;;;;;;9.10;2.47;;;;;;;;;;4997134;28;20423;-78
2021/03/13 13:45:16;;;;;;;5.65;1.67;;;;;;;;;;5014151;28;20076;-78
2021/03/13 13:47:42;;;;;;;6.63;2.10;;;;;;;;;;5014328;28;20069;-77
2021/03/13 13:50:10;;;;;;;5.55;1.65;;;;;;;;;;5017896;28;20601;-78
2021/03/13 13:52:39;;;;;;;5.75;1.60;;;;;;;;;;5014356;28;20034;-77
2021/03/13 13:55:09;;;;;;;5.28;1.70;;;;;;;;;;4998069;28;20095;-77
2021/03/13 13:57:35;;;;;;;5.85;1.70;;;;;;;;;;5028556;28;20033;-77
2021/03/13 14:00:01;;;;;;;7.80;2.15;;;;;;;;;;5013663;28;20041;-77
2021/03/13 14:02:26;;;;;;;7.70;2.00;;;;;;;;;;5013878;28;20029;-76
2021/03/13 14:04:52;;;;;;;9.57;2.00;;;;;;;;;;5013068;28;20122;-76
2021/03/13 14:07:18;;;;;;;8.30;2.08;;;;;;;;;;5046418;28;20084;-78
2021/03/13 14:09:43;;;;;;;6.65;1.85;;;;;;;;;;5029852;28;20052;-77
2021/03/13 14:12:09;;;;;;;5.63;1.67;;;;;;;;;;5028792;28;20033;-77
2021/03/13 14:14:34;;;;;;;9.73;2.13;;;;;;;;;;5015885;28;20061;-77
2021/03/13 14:17:00;;;;;;;7.45;2.28;;;;;;;;;;5000579;28;20041;-77
2021/03/13 14:19:25;;;;;;;10.25;1.80;;;;;;;;;;5033213;28;20376;-77
2021/03/13 14:21:50;;;;;;;10.73;2.65;;;;;;;;;;5031541;28;20454;-79
2021/03/13 14:24:16;;;;;;;7.93;1.85;;;;;;;;;;5030879;28;20407;-79
2021/03/13 14:26:41;;;;;;;7.82;1.73;;;;;;;;;;5029986;28;20078;-79
2021/03/13 14:29:07;;;;;;;7.55;1.50;;;;;;;;;;5016826;28;20056;-78
2021/03/13 14:31:32;;;;;;;5.47;1.88;;;;;;;;;;5020237;28;20036;-79
2021/03/13 14:33:58;;;;;;;6.72;2.22;;;;;;;;;;5053564;28;20465;-81
2021/03/13 14:36:23;;;;;;;4.65;1.42;;;;;;;;;;5052937;28;20407;-82
2021/03/13 14:38:49;;;;;;;6.50;1.30;;;;;;;;;;5026943;28;20049;-81
2021/03/13 14:41:14;;;;;;;5.35;1.77;;;;;;;;;;5024007;28;20380;-81
2021/03/13 14:43:40;;;;;;;4.97;1.33;;;;;;;;;;5023383;28;20036;-81
2021/03/13 14:46:05;;;;;;;6.03;1.48;;;;;;;;;;5056483;28;20037;-80
2021/03/13 14:48:30;;;;;;;6.05;1.20;;;;;;;;;;5057216;28;20371;-81